Skip Navigation LinksHome page > Weather > Current weather Skip Navigation Links

Current Weather

Heathrow, London

For information only: do not use for flight planning or navigation.
Latest weather
Observation time Wednesday, July 29, 2015 10:50 PM BST
Local time Wednesday, July 29, 2015 11:00 PM BST
Flight conditions Visual Meteorological Conditions
Winds
Wind direction West-Northwest (300°)
Wind speed 7 mph
Visibility 6.2 mi.
Sky condition
Ceiling unlimited
Sky clear
Temperature 57°F
Dewpoint 48°F
Altimeter 29.97 in.Hg
Derived measurements
Relative humidity 72%
Density altitude -14 ft.
Remarks
Ceiling and visibility OK.
METAR EGLL 292150Z 30006KT CAVOK 14/09 Q1015

Settings

Location code

InnerDrive.Weather 4.0.5567.0 Release CLR 4.0.30319.34014
Copyright ©2015 Inner Drive Technology. All rights reserved. Portions Copyright ©1986-2015 David Braverman.

Find weather

Site navigation


Skip Navigation Links

Place info

Page info

PayPal - The safer, easier way to pay online!

Return home.

Copyright ©2015 Inner Drive Technology. Purveyors of fine, hand-crafted computer software. Page printed 2015-07-29T22:00:25 UTC.